createdAt,value
2018-06-09T00:02:14.266Z,20.70
2018-06-09T00:04:42.710Z,20.70
2018-06-09T00:07:10.887Z,20.60
2018-06-09T00:09:39.113Z,20.60
2018-06-09T00:12:07.430Z,20.60
2018-06-09T00:14:35.642Z,20.60
2018-06-09T00:22:01.424Z,20.50
2018-06-09T00:24:29.637Z,20.40
2018-06-09T00:26:57.826Z,20.40
2018-06-09T00:31:54.094Z,20.40
2018-06-09T00:34:22.354Z,20.40
2018-06-09T00:36:50.538Z,20.30
2018-06-09T00:39:18.834Z,20.30
2018-06-09T00:41:47.088Z,20.30
2018-06-09T00:44:15.561Z,20.30
2018-06-09T00:54:08.878Z,20.20
2018-06-09T00:56:47.202Z,20.10
2018-06-09T00:59:15.548Z,20.10
2018-06-09T01:01:43.876Z,20.10
2018-06-09T01:04:12.185Z,20.10
2018-06-09T01:06:40.478Z,20.10
2018-06-09T01:09:09.267Z,20.10
2018-06-09T01:11:37.446Z,20.10
2018-06-09T01:14:05.698Z,20.10
2018-06-09T01:16:34.025Z,20.00
2018-06-09T01:19:02.287Z,20.00
2018-06-09T01:21:30.578Z,20.00
2018-06-09T01:23:58.794Z,20.00
2018-06-09T01:26:27.062Z,20.00
2018-06-09T01:28:55.316Z,20.00
2018-06-09T01:31:23.507Z,20.00
2018-06-09T01:36:19.690Z,20.00
2018-06-09T01:38:48.092Z,20.00
2018-06-09T01:41:16.412Z,20.00
2018-06-09T01:43:44.641Z,20.00
2018-06-09T01:46:13.143Z,20.00
2018-06-09T01:48:41.378Z,20.00
2018-06-09T01:51:09.677Z,20.10
2018-06-09T01:53:37.934Z,20.00
2018-06-09T01:56:06.163Z,20.00
2018-06-09T01:58:34.456Z,19.90
2018-06-09T02:01:02.676Z,19.90
2018-06-09T02:05:59.017Z,19.80
2018-06-09T02:08:27.431Z,19.80
2018-06-09T02:13:23.643Z,19.70
2018-06-09T02:15:51.871Z,19.70
2018-06-09T02:18:20.309Z,19.60
2018-06-09T02:20:48.528Z,19.60
2018-06-09T02:23:16.823Z,19.60
2018-06-09T02:25:45.040Z,19.60
2018-06-09T02:28:13.283Z,19.60
2018-06-09T02:30:41.665Z,19.50
2018-06-09T02:33:09.947Z,19.60
2018-06-09T02:35:38.158Z,19.60
2018-06-09T02:38:06.337Z,19.50
2018-06-09T02:40:34.560Z,19.50
2018-06-09T02:45:31.585Z,19.50
2018-06-09T02:47:59.875Z,19.50
2018-06-09T02:50:28.094Z,19.50
2018-06-09T02:52:56.282Z,19.50
2018-06-09T02:55:24.503Z,19.50
2018-06-09T02:57:52.720Z,19.50
2018-06-09T03:00:20.967Z,19.50
2018-06-09T03:02:49.352Z,19.50
2018-06-09T03:05:17.644Z,19.50
2018-06-09T03:07:45.831Z,19.60
2018-06-09T03:10:14.051Z,19.60
2018-06-09T03:12:42.239Z,19.70
2018-06-09T03:15:10.465Z,19.70
2018-06-09T03:17:38.769Z,19.70
2018-06-09T03:20:07.013Z,19.70
2018-06-09T03:25:04.119Z,19.70
2018-06-09T03:27:32.347Z,19.70
2018-06-09T03:30:00.556Z,19.80
2018-06-09T03:32:28.836Z,19.80
2018-06-09T03:34:57.097Z,19.80
2018-06-09T03:37:25.330Z,19.80
2018-06-09T03:39:53.545Z,19.90
2018-06-09T03:42:21.775Z,19.90
2018-06-09T03:44:50.075Z,19.90
2018-06-09T03:47:18.300Z,19.90
2018-06-09T03:52:14.647Z,20.00
2018-06-09T03:54:42.847Z,20.00
2018-06-09T03:57:11.072Z,20.10
2018-06-09T03:59:39.343Z,20.10
2018-06-09T04:04:35.548Z,20.20
2018-06-09T04:07:03.804Z,20.20
2018-06-09T04:12:00.060Z,20.30
2018-06-09T04:14:28.287Z,20.40
2018-06-09T04:16:57.536Z,20.40
2018-06-09T04:19:25.763Z,20.50
2018-06-09T04:21:54.032Z,20.50
2018-06-09T04:24:22.239Z,20.60
2018-06-09T04:26:56.851Z,20.70
2018-06-09T04:29:25.112Z,20.80
2018-06-09T04:31:53.415Z,20.90
2018-06-09T04:34:21.662Z,21.00
2018-06-09T04:36:49.880Z,21.10
2018-06-09T04:39:18.075Z,21.20
2018-06-09T04:41:46.379Z,21.30
2018-06-09T04:44:14.631Z,21.40
2018-06-09T04:46:43.014Z,21.50
2018-06-09T04:49:11.230Z,21.60
2018-06-09T04:51:39.453Z,21.70
2018-06-09T04:54:07.685Z,21.80
2018-06-09T04:56:35.997Z,22.00
2018-06-09T04:59:04.226Z,22.00
2018-06-09T05:01:32.462Z,22.10
2018-06-09T05:04:00.680Z,22.10
2018-06-09T05:06:28.941Z,22.20
2018-06-09T05:08:57.263Z,22.20
2018-06-09T05:11:25.467Z,22.30
2018-06-09T05:13:53.790Z,22.30
2018-06-09T05:16:23.011Z,22.40
2018-06-09T05:18:51.239Z,22.50
2018-06-09T05:21:19.488Z,22.60
2018-06-09T05:23:47.825Z,22.70
2018-06-09T05:26:16.057Z,22.90
2018-06-09T05:31:12.271Z,23.00
2018-06-09T05:33:40.534Z,23.00
2018-06-09T05:36:08.798Z,23.10
2018-06-09T05:38:37.063Z,23.20
2018-06-09T05:41:05.903Z,23.30
2018-06-09T05:43:34.103Z,23.40
2018-06-09T05:46:02.294Z,23.40
2018-06-09T05:48:30.511Z,23.50
2018-06-09T05:50:58.736Z,23.50
2018-06-09T05:53:26.968Z,23.50
2018-06-09T05:55:55.197Z,23.70
2018-06-09T06:00:51.468Z,23.80
2018-06-09T06:05:47.901Z,24.00
2018-06-09T06:08:16.780Z,24.10
2018-06-09T06:10:45.083Z,24.10
2018-06-09T06:13:13.387Z,24.20
2018-06-09T06:15:41.642Z,24.40
2018-06-09T06:18:09.867Z,24.50
2018-06-09T06:20:38.107Z,24.60
2018-06-09T06:23:07.204Z,24.70
2018-06-09T06:28:04.546Z,24.90
2018-06-09T06:30:32.831Z,25.00
2018-06-09T06:33:01.166Z,25.10
2018-06-09T06:35:29.539Z,25.20
2018-06-09T06:37:57.818Z,25.30
2018-06-09T06:40:26.095Z,25.30
2018-06-09T06:42:54.748Z,25.30
2018-06-09T06:45:23.153Z,25.40
2018-06-09T06:47:51.474Z,25.40
2018-06-09T06:50:19.829Z,25.50
2018-06-09T06:52:48.066Z,25.60
2018-06-09T06:55:16.275Z,25.80
2018-06-09T06:57:44.528Z,25.90
2018-06-09T07:00:12.965Z,26.00
2018-06-09T07:02:41.251Z,26.10
2018-06-09T07:05:09.580Z,26.20
2018-06-09T07:07:37.821Z,26.30
2018-06-09T07:10:06.087Z,26.40
2018-06-09T07:12:34.379Z,26.50
2018-06-09T07:15:02.703Z,26.60
2018-06-09T07:17:30.948Z,26.70
2018-06-09T07:19:59.265Z,26.90
2018-06-09T07:22:27.554Z,27.00
2018-06-09T07:24:55.831Z,27.10
2018-06-09T07:27:24.510Z,27.00
2018-06-09T07:29:52.848Z,27.20
2018-06-09T07:32:21.809Z,27.30
2018-06-09T07:34:51.363Z,27.30
2018-06-09T07:37:19.693Z,27.40
2018-06-09T07:39:48.779Z,27.50
2018-06-09T07:42:17.003Z,27.60
2018-06-09T07:44:45.313Z,27.70
2018-06-09T07:47:13.527Z,27.70
2018-06-09T07:49:41.859Z,27.90
2018-06-09T07:52:10.043Z,27.90
2018-06-09T07:54:38.275Z,27.90
2018-06-09T07:57:06.567Z,28.10
2018-06-09T07:59:34.878Z,28.20
2018-06-09T08:02:03.057Z,28.30
2018-06-09T08:04:31.500Z,28.40
2018-06-09T08:06:59.683Z,28.50
2018-06-09T08:09:27.907Z,28.60
2018-06-09T08:11:56.113Z,28.60
2018-06-09T08:14:24.344Z,28.80
2018-06-09T08:16:52.538Z,28.90
2018-06-09T08:19:20.968Z,29.00
2018-06-09T08:21:49.357Z,28.90
2018-06-09T08:26:45.638Z,28.90
2018-06-09T08:29:13.819Z,28.80
2018-06-09T08:31:42.034Z,28.90
2018-06-09T08:34:10.243Z,29.00
2018-06-09T08:39:07.091Z,29.30
2018-06-09T08:41:35.444Z,29.40
2018-06-09T08:44:03.734Z,29.50
2018-06-09T08:46:31.953Z,29.60
2018-06-09T08:49:00.167Z,29.50
2018-06-09T08:51:28.406Z,29.60
2018-06-09T08:53:56.609Z,29.60
2018-06-09T08:56:24.829Z,29.80
2018-06-09T08:58:53.467Z,29.80
2018-06-09T09:01:21.687Z,29.80
2018-06-09T09:03:49.976Z,29.80
2018-06-09T09:06:18.203Z,29.80
2018-06-09T09:08:46.437Z,29.90
2018-06-09T09:11:15.195Z,30.10
2018-06-09T09:21:07.592Z,30.20
2018-06-09T09:23:35.958Z,30.20
2018-06-09T09:26:05.005Z,30.20
2018-06-09T09:28:33.873Z,30.10
2018-06-09T09:31:02.192Z,30.20
2018-06-09T09:33:30.400Z,30.20
2018-06-09T09:35:58.691Z,30.10
2018-06-09T09:38:26.919Z,30.00
2018-06-09T09:40:55.423Z,30.00
2018-06-09T09:43:23.713Z,30.10
2018-06-09T09:45:52.258Z,30.00
2018-06-09T09:48:20.779Z,29.90
2018-06-09T09:53:17.364Z,30.10
2018-06-09T09:55:45.716Z,30.10
2018-06-09T09:58:13.971Z,30.10
2018-06-09T10:00:42.191Z,30.20
2018-06-09T10:03:11.271Z,30.30
2018-06-09T10:05:39.584Z,30.40
2018-06-09T10:08:08.414Z,30.30
2018-06-09T10:10:36.661Z,30.40
2018-06-09T10:13:04.843Z,30.40
2018-06-09T10:15:33.038Z,30.40
2018-06-09T10:18:01.253Z,30.40
2018-06-09T10:20:29.460Z,30.30
2018-06-09T10:25:25.773Z,30.20
2018-06-09T10:27:53.997Z,30.20
2018-06-09T10:30:22.423Z,30.40
2018-06-09T10:35:18.618Z,30.40
2018-06-09T10:40:12.098Z,30.40
2018-06-09T10:42:40.323Z,30.40
2018-06-09T10:45:08.630Z,30.40
2018-06-09T10:47:36.952Z,30.40
2018-06-09T10:52:33.223Z,30.40
2018-06-09T10:55:01.416Z,30.50
2018-06-09T10:59:57.810Z,30.70
2018-06-09T11:02:26.204Z,30.70
2018-06-09T11:04:55.639Z,30.70
2018-06-09T11:07:25.222Z,30.80
2018-06-09T11:09:53.797Z,30.80
2018-06-09T11:12:22.077Z,30.90
2018-06-09T11:14:50.335Z,30.90
2018-06-09T11:17:18.731Z,31.00
2018-06-09T11:19:47.133Z,31.00
2018-06-09T11:22:15.518Z,31.00
2018-06-09T11:24:44.490Z,31.00
2018-06-09T11:27:12.887Z,31.10
2018-06-09T11:29:41.677Z,31.00
2018-06-09T11:32:10.261Z,31.10
2018-06-09T11:37:11.428Z,31.30
2018-06-09T11:39:40.285Z,31.30
2018-06-09T11:42:08.929Z,31.30
2018-06-09T11:44:37.284Z,31.40
2018-06-09T11:47:06.232Z,31.50
2018-06-09T11:49:34.642Z,31.40
2018-06-09T11:54:31.437Z,31.50
2018-06-09T11:57:00.794Z,31.50
2018-06-09T11:59:29.716Z,31.50
2018-06-09T12:01:58.180Z,31.40
2018-06-09T12:04:26.799Z,31.50
2018-06-09T12:11:51.514Z,31.40
2018-06-09T12:16:49.582Z,31.60
2018-06-09T12:19:20.369Z,31.60
2018-06-09T12:26:45.037Z,31.40
2018-06-09T12:29:14.308Z,31.50
2018-06-09T12:31:44.713Z,31.60
2018-06-09T12:34:13.176Z,31.70
2018-06-09T12:36:41.399Z,31.80
2018-06-09T12:39:09.842Z,31.80
2018-06-09T12:41:38.168Z,31.60
2018-06-09T12:44:06.441Z,31.50
2018-06-09T12:49:02.974Z,31.70
2018-06-09T12:51:32.590Z,31.70
2018-06-09T12:54:01.381Z,31.80
2018-06-09T12:56:29.718Z,31.90
2018-06-09T12:58:58.047Z,31.90
2018-06-09T13:01:26.333Z,32.00
2018-06-09T13:03:54.595Z,32.00
2018-06-09T13:08:51.604Z,32.00
2018-06-09T13:11:19.988Z,32.10
2018-06-09T13:16:16.577Z,32.40
2018-06-09T13:21:14.166Z,32.60
2018-06-09T13:26:11.239Z,32.60
2018-06-09T13:28:40.407Z,32.60
2018-06-09T13:31:10.089Z,32.60
2018-06-09T13:33:38.600Z,32.50
2018-06-09T13:38:36.224Z,32.50
2018-06-09T13:41:05.578Z,32.50
2018-06-09T13:43:35.527Z,32.50
2018-06-09T13:46:05.043Z,32.60
2018-06-09T13:48:33.512Z,32.70
2018-06-09T13:51:02.128Z,32.80
2018-06-09T13:53:30.844Z,33.00
2018-06-09T13:55:59.492Z,33.10
2018-06-09T13:58:28.030Z,33.10
2018-06-09T14:03:24.661Z,33.00
2018-06-09T14:05:53.458Z,32.80
2018-06-09T14:08:22.407Z,32.80
2018-06-09T14:13:19.621Z,33.00
2018-06-09T14:15:47.997Z,32.90
2018-06-09T14:18:16.522Z,32.80
2018-06-09T14:20:44.810Z,32.90
2018-06-09T14:25:41.426Z,33.30
2018-06-09T14:28:09.959Z,33.40
2018-06-09T14:30:38.868Z,33.40
2018-06-09T14:33:07.210Z,33.60
2018-06-09T14:35:35.757Z,33.70
2018-06-09T14:40:32.284Z,34.00
2018-06-09T14:43:01.081Z,34.20
2018-06-09T14:45:29.654Z,34.30
2018-06-09T14:50:26.419Z,34.50
2018-06-09T14:52:55.025Z,34.50
2018-06-09T14:55:23.468Z,34.80
2018-06-09T14:57:51.752Z,35.20
2018-06-09T15:00:20.210Z,35.20
2018-06-09T15:02:48.708Z,35.20
2018-06-09T15:05:17.223Z,35.40
2018-06-09T15:07:45.809Z,35.40
2018-06-09T15:10:14.374Z,35.70
2018-06-09T15:12:42.848Z,35.90
2018-06-09T15:15:11.239Z,36.30
2018-06-09T15:17:40.357Z,36.70
2018-06-09T15:20:08.841Z,36.60
2018-06-09T15:22:37.455Z,36.70
2018-06-09T15:25:05.943Z,37.00
2018-06-09T15:27:34.654Z,37.30
2018-06-09T15:32:32.421Z,37.60
2018-06-09T15:35:01.159Z,37.00
2018-06-09T15:37:29.501Z,36.80
2018-06-09T15:39:57.771Z,36.80
2018-06-09T15:42:26.680Z,37.60
2018-06-09T15:44:55.113Z,38.80
2018-06-09T15:47:23.489Z,40.30
2018-06-09T15:49:51.739Z,41.20
2018-06-09T15:52:20.288Z,42.40
2018-06-09T15:54:48.544Z,43.30
2018-06-09T15:57:18.519Z,44.00
2018-06-09T15:59:46.811Z,43.50
2018-06-09T16:02:15.250Z,43.30
2018-06-09T16:07:12.027Z,43.20
2018-06-09T16:12:08.900Z,44.60
2018-06-09T16:17:05.990Z,46.40
2018-06-09T16:19:34.210Z,47.10
2018-06-09T16:22:03.121Z,47.50
2018-06-09T16:24:31.683Z,47.50
2018-06-09T16:29:28.265Z,47.30
2018-06-09T16:31:57.060Z,47.20
2018-06-09T16:36:54.611Z,47.30
2018-06-09T16:39:22.807Z,47.50
2018-06-09T16:41:52.317Z,47.20
2018-06-09T16:44:20.645Z,46.50
2018-06-09T16:46:49.536Z,45.70
2018-06-09T16:49:18.333Z,45.90
2018-06-09T16:51:47.819Z,46.00
2018-06-09T16:54:16.640Z,46.50
2018-06-09T16:56:46.769Z,46.80
2018-06-09T16:59:15.115Z,46.70
2018-06-09T17:01:43.980Z,47.10
2018-06-09T17:04:15.358Z,47.50
2018-06-09T17:06:45.172Z,47.20
2018-06-09T17:09:19.304Z,46.60
2018-06-09T17:14:16.595Z,46.10
2018-06-09T17:16:49.879Z,46.30
2018-06-09T17:19:18.610Z,45.80
2018-06-09T17:21:46.970Z,45.90
2018-06-09T17:24:15.748Z,45.50
2018-06-09T17:26:44.467Z,45.40
2018-06-09T17:29:13.140Z,45.30
2018-06-09T17:31:43.052Z,44.90
2018-06-09T17:36:39.701Z,44.00
2018-06-09T17:39:08.312Z,43.70
2018-06-09T17:41:37.177Z,43.40
2018-06-09T17:44:07.745Z,43.20
2018-06-09T17:46:36.316Z,43.20
2018-06-09T17:49:04.785Z,43.30
2018-06-09T17:51:33.984Z,43.10
2018-06-09T17:54:02.727Z,41.60
2018-06-09T17:56:31.282Z,40.80
2018-06-09T17:59:00.698Z,40.10
2018-06-09T18:01:29.159Z,40.10
2018-06-09T18:03:57.574Z,39.60
2018-06-09T18:06:26.098Z,39.20
2018-06-09T18:08:54.901Z,38.60
2018-06-09T18:11:24.008Z,37.60
2018-06-09T18:13:53.066Z,37.10
2018-06-09T18:16:21.848Z,37.20
2018-06-09T18:18:51.042Z,36.70
2018-06-09T18:21:19.966Z,36.10
2018-06-09T18:26:16.595Z,35.50
2018-06-09T18:28:45.210Z,35.70
2018-06-09T18:31:13.588Z,35.90
2018-06-09T18:33:42.367Z,36.10
2018-06-09T18:36:11.724Z,36.10
2018-06-09T18:38:40.114Z,35.90
2018-06-09T18:41:12.052Z,35.30
2018-06-09T18:43:45.352Z,34.60
2018-06-09T18:46:14.686Z,33.60
2018-06-09T18:48:43.061Z,32.60
2018-06-09T18:51:14.265Z,31.80
2018-06-09T18:53:43.375Z,31.10
2018-06-09T18:58:40.758Z,30.10
2018-06-09T19:01:09.701Z,29.70
2018-06-09T19:03:38.829Z,29.40
2018-06-09T19:06:07.541Z,29.20
2018-06-09T19:08:36.174Z,28.90
2018-06-09T19:11:08.002Z,28.60
2018-06-09T19:13:36.317Z,28.40
2018-06-09T19:16:04.768Z,28.20
2018-06-09T19:21:01.625Z,27.90
2018-06-09T19:23:30.437Z,27.70
2018-06-09T19:26:01.278Z,27.60
2018-06-09T19:28:29.806Z,27.50
2018-06-09T19:30:58.120Z,27.30
2018-06-09T19:33:26.569Z,27.20
2018-06-09T19:35:55.004Z,27.10
2018-06-09T19:38:23.511Z,27.00
2018-06-09T19:40:54.484Z,26.90
2018-06-09T19:43:23.122Z,26.80
2018-06-09T19:45:52.487Z,26.70
2018-06-09T19:48:21.168Z,26.60
2018-06-09T19:50:50.559Z,26.50
2018-06-09T19:53:20.474Z,26.40
2018-06-09T19:55:49.791Z,26.30
2018-06-09T19:58:19.233Z,26.20
2018-06-09T20:00:47.578Z,26.10
2018-06-09T20:03:16.111Z,26.00
2018-06-09T20:05:44.960Z,25.90
2018-06-09T20:08:15.599Z,25.80
2018-06-09T20:10:46.779Z,25.60
2018-06-09T20:13:15.902Z,25.60
2018-06-09T20:15:44.323Z,25.50
2018-06-09T20:18:13.431Z,25.40
2018-06-09T20:20:41.994Z,25.40
2018-06-09T20:23:13.653Z,25.30
2018-06-09T20:28:12.303Z,25.20
2018-06-09T20:30:41.159Z,25.20
2018-06-09T20:35:39.309Z,25.10
2018-06-09T20:38:08.196Z,25.00
2018-06-09T20:40:37.971Z,25.00
2018-06-09T20:43:06.898Z,25.00
2018-06-09T20:45:35.547Z,24.90
2018-06-09T20:48:05.190Z,24.90
2018-06-09T20:50:34.545Z,24.80
2018-06-09T20:53:02.876Z,24.80
2018-06-09T20:55:31.883Z,24.70
2018-06-09T20:58:00.290Z,24.60
2018-06-09T21:00:28.617Z,24.50
2018-06-09T21:02:57.759Z,24.50
2018-06-09T21:05:26.136Z,24.40
2018-06-09T21:07:54.582Z,24.40
2018-06-09T21:10:23.153Z,24.40
2018-06-09T21:12:52.237Z,24.30
2018-06-09T21:15:22.265Z,24.30
2018-06-09T21:17:50.584Z,24.20
2018-06-09T21:20:19.892Z,24.20
2018-06-09T21:22:48.226Z,24.20
2018-06-09T21:25:16.748Z,24.20
2018-06-09T21:27:50.951Z,24.10
2018-06-09T21:30:24.592Z,24.10
2018-06-09T21:35:45.555Z,24.00
2018-06-09T21:38:18.237Z,24.00
2018-06-09T21:40:49.854Z,23.90
2018-06-09T21:43:23.688Z,23.90
2018-06-09T21:45:52.328Z,23.80
2018-06-09T21:48:23.083Z,23.80
2018-06-09T21:50:51.384Z,23.80
2018-06-09T21:53:19.638Z,23.90
2018-06-09T21:58:15.987Z,24.00
2018-06-09T22:00:44.247Z,24.00
2018-06-09T22:03:12.571Z,24.10
2018-06-09T22:05:40.842Z,24.00
2018-06-09T22:08:09.060Z,24.00
2018-06-09T22:10:37.422Z,24.00
2018-06-09T22:13:06.066Z,24.00
2018-06-09T22:15:34.335Z,23.90
2018-06-09T22:18:02.648Z,23.90
2018-06-09T22:22:59.375Z,23.80
2018-06-09T22:25:33.524Z,23.70
2018-06-09T22:28:01.911Z,23.70
2018-06-09T22:30:30.220Z,23.60
2018-06-09T22:32:58.607Z,23.60
2018-06-09T22:35:26.896Z,23.50
2018-06-09T22:37:55.252Z,23.50
2018-06-09T22:40:23.496Z,23.50
2018-06-09T22:42:51.787Z,23.60
2018-06-09T22:45:20.350Z,23.60
2018-06-09T22:47:48.918Z,23.70
2018-06-09T22:50:17.429Z,23.70
2018-06-09T22:52:46.010Z,23.60
2018-06-09T22:55:14.228Z,23.60
2018-06-09T22:57:42.976Z,23.60
2018-06-09T23:00:18.006Z,23.60
2018-06-09T23:02:47.583Z,23.50
2018-06-09T23:05:16.398Z,23.40
2018-06-09T23:07:44.734Z,23.40
2018-06-09T23:12:41.331Z,23.20
2018-06-09T23:15:09.697Z,23.20
2018-06-09T23:20:06.192Z,23.10
2018-06-09T23:22:34.425Z,23.10
2018-06-09T23:25:02.738Z,23.10
2018-06-09T23:27:30.971Z,23.10
2018-06-09T23:29:59.367Z,23.00
2018-06-09T23:32:28.189Z,23.00
2018-06-09T23:34:56.687Z,22.90
2018-06-09T23:37:24.944Z,22.90
2018-06-09T23:39:53.174Z,22.80
2018-06-09T23:42:21.407Z,22.80
2018-06-09T23:47:17.807Z,22.70
2018-06-09T23:49:46.000Z,22.70
2018-06-09T23:52:14.248Z,22.70
2018-06-09T23:54:42.443Z,22.60
2018-06-09T23:59:38.766Z,22.60
